Previous Day
Next Day
Current Day
SHEF ID: FVSO2 FAIRVIEW
STATION TYPE: Mesonet
PRECIP AIR-TEMP WIND-DIRWIND-SPEED REL-HUMID SOLAR-RAD
in F deg mph % W/m2
Raw-Meson Raw-Meson Raw-Meson Raw-Meson Raw-Meson Raw-Meson
(US/Central)
06/09 00:00 0.00 72.86 132.25 6.49 93.25 0.00
06/09 01:00 0.00 71.51 143.75 4.70 95.25 0.00
06/09 02:00 0.00 70.30 160.50 4.36 97.00 0.00
06/09 03:00 0.00 69.98 146.25 4.19 98.00 0.00
06/09 04:00 0.00 69.17 110.25 3.52 98.50 0.00
06/09 05:00 0.00 68.86 126.75 3.19 99.00 0.00
06/09 06:00 0.00 69.17 141.75 3.70 99.25 0.00
06/09 07:00 0.00 69.62 143.50 6.15 100.00 15.50
06/09 08:00 0.00 70.88 141.25 7.66 99.50 64.25
06/09 09:00 0.00 72.81 140.00 9.96 99.00 126.00
06/09 10:00 0.00 75.38 147.25 9.84 94.75 216.00
06/09 11:00 0.00 82.72 144.50 9.84 80.75 549.50
06/09 12:00 0.00 89.06 136.00 10.35 67.00 620.00
06/09 13:00 0.00 91.89 138.75 12.92 61.25 545.00
06/09 14:00 0.00 94.28 166.00 13.31 56.50 963.75
06/09 15:00 0.00 ---- ---- ---- ---- ----
06/09 16:00 0.00 95.86 161.75 13.82 51.75 783.75
06/09 17:00 0.00 95.50 157.75 11.07 51.50 619.25
06/09 18:00 0.00 95.63 160.00 11.07 51.00 496.50
06/09 19:00 0.00 94.28 167.25 11.24 51.25 336.50
06/09 20:00 ---- 92.16 153.50 9.73 56.00 133.50
06/09 21:00 ---- ---- ---- ---- ---- ----
06/09 22:00 ---- ---- ---- ---- ---- ----
06/09 23:00 ---- ---- ---- ---- ---- ----